createdAt,value
2022-12-14T00:02:34.169Z,2.30
2022-12-14T00:05:37.591Z,2.30
2022-12-14T00:08:42.003Z,2.20
2022-12-14T00:11:45.215Z,2.60
2022-12-14T00:14:49.501Z,2.40
2022-12-14T00:17:52.515Z,2.13
2022-12-14T00:20:55.509Z,2.40
2022-12-14T00:23:59.866Z,2.50
2022-12-14T00:27:02.849Z,2.35
2022-12-14T00:30:08.360Z,2.40
2022-12-14T00:33:11.361Z,2.42
2022-12-14T00:36:14.979Z,2.60
2022-12-14T00:39:18.171Z,2.67
2022-12-14T00:42:21.098Z,2.42
2022-12-14T00:45:25.546Z,2.10
2022-12-14T00:48:28.959Z,2.35
2022-12-14T00:51:32.204Z,2.40
2022-12-14T00:54:35.219Z,2.33
2022-12-14T00:57:38.178Z,2.10
2022-12-14T01:00:44.167Z,2.30
2022-12-14T01:03:47.118Z,2.50
2022-12-14T01:06:51.832Z,2.30
2022-12-14T01:09:54.789Z,2.25
2022-12-14T01:12:57.779Z,2.75
2022-12-14T01:16:06.196Z,2.22
2022-12-14T01:19:09.295Z,2.40
2022-12-14T01:22:12.222Z,2.45
2022-12-14T01:25:15.294Z,2.47
2022-12-14T01:28:19.216Z,2.60
2022-12-14T01:31:26.526Z,2.42
2022-12-14T01:34:29.613Z,2.40
2022-12-14T01:37:32.730Z,2.63
2022-12-14T01:40:35.674Z,2.55
2022-12-14T01:43:49.648Z,2.35
2022-12-14T01:46:59.854Z,2.33
2022-12-14T01:50:10.422Z,2.42
2022-12-14T01:53:17.154Z,2.45
2022-12-14T01:56:20.523Z,2.40
2022-12-14T01:59:27.645Z,2.38
2022-12-14T02:02:33.113Z,2.20
2022-12-14T02:05:39.059Z,2.25
2022-12-14T02:08:44.906Z,2.25
2022-12-14T02:11:56.878Z,2.50
2022-12-14T02:15:01.590Z,2.03
2022-12-14T02:18:10.311Z,2.50
2022-12-14T02:21:22.645Z,2.75
2022-12-14T02:24:48.522Z,2.45
2022-12-14T02:28:04.705Z,2.50
2022-12-14T02:31:16.772Z,2.20
2022-12-14T02:34:29.730Z,2.67
2022-12-14T02:37:45.043Z,2.40
2022-12-14T02:41:01.962Z,2.30
2022-12-14T02:44:16.227Z,2.38
2022-12-14T02:47:28.088Z,2.10
2022-12-14T02:50:40.961Z,2.30
2022-12-14T02:53:50.171Z,2.38
2022-12-14T02:56:57.507Z,2.40
2022-12-14T03:00:03.392Z,2.45
2022-12-14T03:03:08.328Z,2.40
2022-12-14T03:06:15.646Z,2.40
2022-12-14T03:09:19.539Z,2.50
2022-12-14T03:12:23.998Z,2.47
2022-12-14T03:15:30.926Z,1.98
2022-12-14T03:18:40.583Z,2.30
2022-12-14T03:21:47.792Z,2.10
2022-12-14T03:24:53.740Z,2.13
2022-12-14T03:28:02.225Z,2.17
2022-12-14T03:31:08.044Z,2.20
2022-12-14T03:34:16.849Z,2.28
2022-12-14T03:37:27.670Z,2.13
2022-12-14T03:40:35.907Z,2.20
2022-12-14T03:43:49.737Z,2.33
2022-12-14T03:46:58.831Z,2.17
2022-12-14T03:50:09.038Z,2.08
2022-12-14T03:53:17.810Z,2.42
2022-12-14T03:56:29.810Z,2.22
2022-12-14T03:59:39.006Z,2.28
2022-12-14T04:02:48.683Z,2.92
2022-12-14T04:06:01.254Z,2.42
2022-12-14T04:09:11.826Z,2.13
2022-12-14T04:12:36.050Z,2.20
2022-12-14T04:15:59.706Z,2.25
2022-12-14T04:19:09.421Z,2.13
2022-12-14T04:22:17.494Z,1.95
2022-12-14T04:25:43.645Z,2.38
2022-12-14T04:29:09.565Z,2.20
2022-12-14T04:32:18.988Z,2.10
2022-12-14T04:35:27.253Z,2.40
2022-12-14T04:38:35.893Z,2.15
2022-12-14T04:41:44.052Z,2.00
2022-12-14T04:44:52.263Z,2.30
2022-12-14T04:48:00.423Z,2.20
2022-12-14T04:51:10.517Z,2.40
2022-12-14T04:54:20.569Z,2.28
2022-12-14T04:57:28.911Z,2.22
2022-12-14T05:00:36.284Z,2.08
2022-12-14T05:03:50.297Z,2.20
2022-12-14T05:07:03.357Z,1.90
2022-12-14T05:10:12.505Z,2.33
2022-12-14T05:13:21.593Z,2.17
2022-12-14T05:16:25.761Z,2.28
2022-12-14T05:19:28.757Z,2.00
2022-12-14T05:22:31.769Z,2.10
2022-12-14T05:25:36.405Z,2.20
2022-12-14T05:28:39.483Z,2.00
2022-12-14T05:31:42.479Z,2.15
2022-12-14T05:34:52.222Z,2.20
2022-12-14T05:37:55.141Z,2.47
2022-12-14T05:40:59.491Z,2.20
2022-12-14T05:44:02.417Z,2.15
2022-12-14T05:47:05.752Z,2.20
2022-12-14T05:50:09.915Z,2.50
2022-12-14T05:53:12.927Z,2.22
2022-12-14T05:56:17.350Z,2.20
2022-12-14T05:59:20.383Z,1.90
2022-12-14T06:02:23.706Z,2.03
2022-12-14T06:05:27.082Z,2.22
2022-12-14T06:08:32.631Z,2.13
2022-12-14T06:11:39.126Z,1.63
2022-12-14T06:14:42.122Z,2.40
2022-12-14T06:17:45.535Z,1.88
2022-12-14T06:20:48.500Z,2.28
2022-12-14T06:23:51.526Z,2.17
2022-12-14T06:26:56.053Z,2.00
2022-12-14T06:29:59.921Z,2.70
2022-12-14T06:33:02.841Z,1.90
2022-12-14T06:36:06.346Z,2.45
2022-12-14T06:39:13.210Z,1.88
2022-12-14T06:42:17.550Z,2.03
2022-12-14T06:45:20.538Z,2.45
2022-12-14T06:48:23.514Z,2.22
2022-12-14T06:51:26.587Z,2.30
2022-12-14T06:54:30.357Z,2.00
2022-12-14T06:57:35.139Z,2.05
2022-12-14T07:00:38.228Z,2.13
2022-12-14T07:03:42.271Z,2.20
2022-12-14T07:06:45.283Z,2.03
2022-12-14T07:09:48.550Z,2.40
2022-12-14T07:12:52.950Z,2.20
2022-12-14T07:15:57.309Z,2.30
2022-12-14T07:19:00.486Z,2.17
2022-12-14T07:22:04.749Z,2.08
2022-12-14T07:25:08.679Z,2.40
2022-12-14T07:28:13.070Z,2.17
2022-12-14T07:31:17.468Z,2.30
2022-12-14T07:34:20.451Z,2.63
2022-12-14T07:37:24.197Z,2.40
2022-12-14T07:40:27.234Z,2.53
2022-12-14T07:43:31.613Z,2.45
2022-12-14T07:46:34.692Z,2.33
2022-12-14T07:49:37.709Z,3.13
2022-12-14T07:52:40.864Z,3.33
2022-12-14T07:55:43.955Z,4.22
2022-12-14T07:58:48.434Z,3.20
2022-12-14T08:01:53.917Z,3.05
2022-12-14T08:04:57.090Z,3.20
2022-12-14T08:08:00.887Z,3.30
2022-12-14T08:11:04.543Z,3.05
2022-12-14T08:14:12.133Z,7.30
2022-12-14T08:17:15.427Z,8.82
2022-12-14T08:20:18.494Z,6.20
2022-12-14T08:23:21.575Z,7.70
2022-12-14T08:26:33.315Z,6.70
2022-12-14T08:29:39.866Z,5.63
2022-12-14T08:32:42.816Z,5.95
2022-12-14T08:35:45.969Z,5.65
2022-12-14T08:38:54.637Z,5.80
2022-12-14T08:41:57.588Z,4.95
2022-12-14T08:45:02.029Z,5.10
2022-12-14T08:48:05.293Z,5.50
2022-12-14T08:51:10.551Z,4.90
2022-12-14T08:54:14.349Z,5.05
2022-12-14T08:57:17.434Z,5.43
2022-12-14T09:00:22.166Z,4.85
2022-12-14T09:03:25.698Z,4.40
2022-12-14T09:06:28.691Z,5.60
2022-12-14T09:09:32.379Z,4.75
2022-12-14T09:12:36.211Z,5.10
2022-12-14T09:15:40.753Z,5.20
2022-12-14T09:18:44.256Z,4.88
2022-12-14T09:21:47.369Z,4.55
2022-12-14T09:24:50.855Z,4.70
2022-12-14T09:27:53.859Z,4.80
2022-12-14T09:30:59.971Z,4.60
2022-12-14T09:34:03.947Z,4.78
2022-12-14T09:37:07.735Z,5.07
2022-12-14T09:40:12.451Z,4.65
2022-12-14T09:43:23.829Z,4.05
2022-12-14T09:46:43.217Z,4.53
2022-12-14T09:49:49.632Z,4.05
2022-12-14T09:52:54.975Z,4.38
2022-12-14T09:55:59.917Z,4.10
2022-12-14T09:59:04.626Z,4.70
2022-12-14T10:02:31.317Z,3.97
2022-12-14T10:05:48.978Z,4.60
2022-12-14T10:08:57.547Z,4.82
2022-12-14T10:12:11.895Z,3.85
2022-12-14T10:15:28.606Z,4.78
2022-12-14T10:19:02.000Z,4.20
2022-12-14T10:22:12.120Z,4.28
2022-12-14T10:25:20.212Z,4.20
2022-12-14T10:28:31.622Z,4.72
2022-12-14T10:31:45.842Z,3.90
2022-12-14T10:34:51.407Z,4.30
2022-12-14T10:38:01.904Z,3.80
2022-12-14T10:41:16.542Z,4.28
2022-12-14T10:44:26.413Z,4.00
2022-12-14T10:47:35.766Z,4.30
2022-12-14T10:50:50.807Z,4.40
2022-12-14T10:53:58.166Z,4.13
2022-12-14T10:57:01.484Z,4.68
2022-12-14T11:00:22.663Z,4.03
2022-12-14T11:03:29.008Z,4.20
2022-12-14T11:06:35.026Z,4.07
2022-12-14T11:09:39.766Z,4.60
2022-12-14T11:12:43.040Z,4.00
2022-12-14T11:15:48.855Z,4.05
2022-12-14T11:18:59.289Z,4.20
2022-12-14T11:22:20.134Z,4.10
2022-12-14T11:25:39.799Z,4.40
2022-12-14T11:28:50.037Z,4.53
2022-12-14T11:31:53.729Z,3.92
2022-12-14T11:34:59.498Z,4.53
2022-12-14T11:38:04.209Z,4.30
2022-12-14T11:41:11.461Z,4.32
2022-12-14T11:44:24.703Z,3.60
2022-12-14T11:47:27.848Z,4.32
2022-12-14T11:50:31.060Z,4.03
2022-12-14T11:53:35.566Z,4.47
2022-12-14T11:56:38.715Z,4.28
2022-12-14T11:59:46.438Z,4.40
2022-12-14T12:02:54.984Z,4.28
2022-12-14T12:06:04.554Z,4.35
2022-12-14T12:09:22.968Z,3.95
2022-12-14T12:12:26.125Z,4.90
2022-12-14T12:15:36.560Z,4.88
2022-12-14T12:18:46.598Z,4.63
2022-12-14T12:21:50.392Z,4.63
2022-12-14T12:28:28.362Z,5.28
2022-12-14T12:31:36.276Z,5.00
2022-12-14T12:34:45.262Z,4.45
2022-12-14T12:37:51.343Z,5.35
2022-12-14T12:41:04.008Z,5.30
2022-12-14T12:44:25.408Z,5.35
2022-12-14T12:47:43.142Z,5.82
2022-12-14T12:50:52.724Z,6.20
2022-12-14T12:54:01.633Z,5.53
2022-12-14T12:57:10.771Z,4.88
2022-12-14T13:00:18.292Z,5.15
2022-12-14T13:03:24.916Z,5.63
2022-12-14T13:06:32.147Z,5.78
2022-12-14T13:09:40.676Z,5.28
2022-12-14T13:12:48.676Z,5.78
2022-12-14T13:15:54.508Z,5.50
2022-12-14T13:19:48.643Z,5.55
2022-12-14T13:22:29.565Z,5.40
2022-12-14T13:25:43.401Z,5.18
2022-12-14T13:28:57.978Z,6.10
2022-12-14T13:32:08.826Z,6.63
2022-12-14T13:35:26.198Z,6.57
2022-12-14T13:38:56.014Z,7.05
2022-12-14T13:42:06.954Z,5.95
2022-12-14T13:45:19.478Z,6.03
2022-12-14T13:48:25.370Z,6.80
2022-12-14T13:51:31.072Z,11.32
2022-12-14T13:54:38.954Z,13.43
2022-12-14T13:57:42.841Z,14.38
2022-12-14T14:00:59.270Z,14.10
2022-12-14T14:04:22.769Z,12.65
2022-12-14T14:07:50.094Z,12.35
2022-12-14T14:11:02.498Z,11.68
2022-12-14T14:14:35.943Z,11.07
2022-12-14T14:17:43.101Z,10.75
2022-12-14T14:20:50.612Z,10.27
2022-12-14T14:23:58.266Z,9.43
2022-12-14T14:27:11.392Z,10.20
2022-12-14T14:30:36.531Z,10.13
2022-12-14T14:33:47.112Z,9.15
2022-12-14T14:36:52.530Z,9.40
2022-12-14T14:40:13.316Z,10.10
2022-12-14T14:43:29.171Z,9.85
2022-12-14T14:46:35.833Z,9.55
2022-12-14T14:49:43.789Z,9.55
2022-12-14T14:53:11.713Z,8.90
2022-12-14T14:56:39.998Z,8.70
2022-12-14T14:59:50.657Z,8.52
2022-12-14T15:02:56.001Z,9.63
2022-12-14T15:06:00.897Z,9.70
2022-12-14T15:09:13.441Z,8.18
2022-12-14T15:12:29.147Z,8.27
2022-12-14T15:15:38.504Z,9.20
2022-12-14T15:18:41.525Z,8.15
2022-12-14T15:21:46.440Z,8.30
2022-12-14T15:24:52.107Z,9.10
2022-12-14T15:27:57.900Z,8.57
2022-12-14T15:31:01.190Z,8.27
2022-12-14T15:34:04.689Z,8.40
2022-12-14T15:37:24.378Z,8.10
2022-12-14T15:40:30.289Z,8.73
2022-12-14T15:43:34.019Z,8.40
2022-12-14T15:46:40.257Z,8.05
2022-12-14T15:49:43.226Z,8.13
2022-12-14T15:52:49.252Z,7.60
2022-12-14T15:56:00.177Z,7.70
2022-12-14T15:59:08.295Z,7.85
2022-12-14T16:02:24.752Z,7.68
2022-12-14T16:05:28.721Z,7.55
2022-12-14T16:08:35.895Z,7.70
2022-12-14T16:11:42.998Z,8.18
2022-12-14T16:14:49.531Z,7.93
2022-12-14T16:18:00.721Z,8.50
2022-12-14T16:21:05.199Z,8.40
2022-12-14T16:24:23.774Z,8.10
2022-12-14T16:27:28.082Z,8.43
2022-12-14T16:30:33.019Z,8.35
2022-12-14T16:33:38.159Z,7.72
2022-12-14T16:36:41.368Z,7.80
2022-12-14T16:39:49.689Z,7.85
2022-12-14T16:42:52.754Z,8.07
2022-12-14T16:46:13.243Z,8.02
2022-12-14T16:49:30.233Z,7.50
2022-12-14T16:52:35.365Z,7.47
2022-12-14T16:56:01.718Z,7.70
2022-12-14T16:59:06.819Z,7.97
2022-12-14T17:02:29.220Z,8.30
2022-12-14T17:05:35.516Z,8.35
2022-12-14T17:08:38.538Z,9.48
2022-12-14T17:11:43.470Z,8.82
2022-12-14T17:14:49.766Z,8.88
2022-12-14T17:17:55.918Z,7.82
2022-12-14T17:20:59.368Z,8.75
2022-12-14T17:24:02.393Z,7.88
2022-12-14T17:27:06.770Z,9.93
2022-12-14T17:30:15.651Z,8.68
2022-12-14T17:33:18.778Z,8.85
2022-12-14T17:36:21.950Z,8.70
2022-12-14T17:39:25.057Z,9.55
2022-12-14T17:42:29.538Z,8.25
2022-12-14T17:45:32.492Z,8.48
2022-12-14T17:48:37.256Z,8.30
2022-12-14T17:51:43.552Z,8.45
2022-12-14T17:54:46.574Z,8.23
2022-12-14T17:57:51.431Z,8.57
2022-12-14T18:01:04.612Z,9.52
2022-12-14T18:04:07.978Z,9.45
2022-12-14T18:07:11.424Z,8.70
2022-12-14T18:10:17.033Z,8.75
2022-12-14T18:13:21.397Z,7.95
2022-12-14T18:16:27.215Z,8.15
2022-12-14T18:19:31.999Z,8.27
2022-12-14T18:22:35.081Z,8.30
2022-12-14T18:25:41.974Z,8.85
2022-12-14T18:28:46.269Z,9.40
2022-12-14T18:31:49.913Z,8.32
2022-12-14T18:34:53.038Z,8.30
2022-12-14T18:37:56.177Z,8.80
2022-12-14T18:41:01.735Z,8.80
2022-12-14T18:44:06.360Z,8.88
2022-12-14T18:47:39.505Z,8.40
2022-12-14T18:50:32.483Z,8.65
2022-12-14T18:53:35.511Z,8.65
2022-12-14T18:56:38.545Z,9.00
2022-12-14T18:59:43.293Z,8.43
2022-12-14T19:02:49.834Z,8.35
2022-12-14T19:05:53.181Z,9.35
2022-12-14T19:08:57.009Z,8.43
2022-12-14T19:12:00.076Z,8.07
2022-12-14T19:15:05.073Z,9.13
2022-12-14T19:18:08.152Z,8.15
2022-12-14T19:21:11.395Z,8.13
2022-12-14T19:24:14.999Z,8.68
2022-12-14T19:27:35.634Z,8.25
2022-12-14T19:30:45.044Z,10.23
2022-12-14T19:33:48.123Z,8.82
2022-12-14T19:36:51.177Z,8.30
2022-12-14T19:39:54.850Z,8.23
2022-12-14T19:42:59.111Z,8.50
2022-12-14T19:46:06.919Z,8.48
2022-12-14T19:49:11.273Z,8.20
2022-12-14T19:52:14.333Z,8.18
2022-12-14T19:55:17.609Z,7.95
2022-12-14T19:58:22.921Z,8.52
2022-12-14T20:01:32.700Z,7.45
2022-12-14T20:04:36.475Z,8.52
2022-12-14T20:07:43.955Z,8.07
2022-12-14T20:10:47.262Z,8.80
2022-12-14T20:13:56.281Z,7.72
2022-12-14T20:17:02.514Z,7.47
2022-12-14T20:20:06.329Z,8.40
2022-12-14T20:23:09.310Z,7.80
2022-12-14T20:26:16.903Z,8.43
2022-12-14T20:29:19.998Z,7.53
2022-12-14T20:32:24.368Z,8.65
2022-12-14T20:35:27.371Z,7.80
2022-12-14T20:38:30.391Z,8.43
2022-12-14T20:41:34.041Z,8.35
2022-12-14T20:44:37.021Z,7.95
2022-12-14T20:47:41.417Z,7.97
2022-12-14T20:50:49.881Z,7.93
2022-12-14T20:53:54.359Z,8.45
2022-12-14T20:56:57.430Z,7.82
2022-12-14T21:00:00.610Z,7.60
2022-12-14T21:03:05.559Z,7.32
2022-12-14T21:06:09.122Z,8.13
2022-12-14T21:09:12.709Z,8.30
2022-12-14T21:12:25.803Z,8.45
2022-12-14T21:15:28.974Z,8.38
2022-12-14T21:18:33.307Z,8.40
2022-12-14T21:21:36.361Z,8.40
2022-12-14T21:28:02.490Z,8.43
2022-12-14T21:31:06.956Z,8.05
2022-12-14T21:34:14.802Z,7.93
2022-12-14T21:37:18.602Z,7.70
2022-12-14T21:40:35.503Z,7.68
2022-12-14T21:43:38.658Z,7.65
2022-12-14T21:46:41.877Z,7.70
2022-12-14T21:49:47.279Z,7.57
2022-12-14T21:52:50.375Z,7.40
2022-12-14T21:56:13.570Z,8.07
2022-12-14T21:59:16.567Z,8.02
2022-12-14T22:02:21.566Z,8.02
2022-12-14T22:05:26.139Z,8.23
2022-12-14T22:08:31.127Z,8.05
2022-12-14T22:11:35.333Z,7.50
2022-12-14T22:14:38.765Z,7.53
2022-12-14T22:17:41.746Z,8.20
2022-12-14T22:20:46.130Z,8.10
2022-12-14T22:23:49.174Z,8.32
2022-12-14T22:26:52.807Z,8.20
2022-12-14T22:29:55.875Z,8.32
2022-12-14T22:32:58.935Z,8.05
2022-12-14T22:36:03.568Z,7.30
2022-12-14T22:39:06.945Z,7.57
2022-12-14T22:42:10.577Z,7.40
2022-12-14T22:45:13.614Z,8.27
2022-12-14T22:48:16.786Z,7.80
2022-12-14T22:51:22.367Z,7.47
2022-12-14T22:54:28.022Z,7.32
2022-12-14T22:57:31.381Z,7.78
2022-12-14T23:00:34.652Z,8.20
2022-12-14T23:03:38.082Z,7.70
2022-12-14T23:06:43.084Z,7.72
2022-12-14T23:10:03.623Z,7.40
2022-12-14T23:13:24.002Z,6.75
2022-12-14T23:16:44.285Z,8.27
2022-12-14T23:20:10.732Z,7.22
2022-12-14T23:23:32.714Z,8.23
2022-12-14T23:26:53.857Z,8.50
2022-12-14T23:30:14.342Z,8.23
2022-12-14T23:33:34.608Z,7.65
2022-12-14T23:36:55.000Z,7.35
2022-12-14T23:40:16.745Z,7.38
2022-12-14T23:43:37.102Z,8.00
2022-12-14T23:46:57.329Z,7.65
2022-12-14T23:50:17.613Z,7.88
2022-12-14T23:53:38.050Z,7.78
2022-12-14T23:56:59.842Z,7.68
